Time;durP1;ratioP1;P1;durP2;ratioP2;P2;SDS_P1;SDS_P2;PMS_P1;PMS_P2;Temp;Humidity;BMP_temperature;BMP_pressure;BME280_temperature;BME280_humidity;BME280_pressure;Samples;Min_cycle;Max_cycle;Signal;HPM_P1;HPM_P2
2023/10/13 00:00:47;;;;;;;7.45;3.72;;;19.00;83.10;;;;;;5004350;28;20451;-75
2023/10/13 00:03:16;;;;;;;10.70;4.65;;;19.00;83.40;;;;;;4993256;28;20022;-75
2023/10/13 00:05:42;;;;;;;12.60;4.15;;;19.00;83.60;;;;;;4992826;28;20129;-75
2023/10/13 00:08:09;;;;;;;11.05;4.45;;;18.90;83.60;;;;;;5002372;28;20084;-74
2023/10/13 00:10:35;;;;;;;11.60;4.20;;;18.90;83.90;;;;;;5004202;28;20436;-74
2023/10/13 00:13:21;;;;;;;10.70;5.07;;;18.80;84.30;;;;;;5012580;28;20054;-75
2023/10/13 00:16:03;;;;;;;6.40;3.70;;;18.80;84.50;;;;;;5012515;28;20105;-75
2023/10/13 00:18:33;;;;;;;11.50;4.55;;;18.70;84.30;;;;;;5011230;28;20030;-75
2023/10/13 00:21:13;;;;;;;11.90;4.10;;;18.70;84.70;;;;;;5012652;28;20033;-75
2023/10/13 00:23:53;;;;;;;12.90;4.32;;;18.60;85.00;;;;;;5011808;28;20036;-76
2023/10/13 00:26:35;;;;;;;8.02;4.28;;;18.50;85.40;;;;;;5008129;28;20064;-75
2023/10/13 00:29:15;;;;;;;;;;;;;;;;;;;;;
2023/10/13 00:31:42;;;;;;;9.77;4.13;;;18.50;86.00;;;;;;5005527;28;20030;-73
2023/10/13 00:34:19;;;;;;;13.27;5.03;;;18.40;86.50;;;;;;5003300;28;20027;-72
2023/10/13 00:39:29;;;;;;;6.93;4.10;;;18.30;86.80;;;;;;5005882;28;20025;-74
2023/10/13 00:41:59;;;;;;;14.15;4.53;;;18.30;87.00;;;;;;5006475;28;20029;-74
2023/10/13 00:44:32;;;;;;;8.25;4.25;;;18.30;87.30;;;;;;5004290;28;20022;-74
2023/10/13 00:47:07;;;;;;;9.27;4.20;;;18.30;87.60;;;;;;5003187;28;20087;-75
2023/10/13 00:49:51;;;;;;;12.73;4.50;;;18.30;87.50;;;;;;5003188;28;20476;-76
2023/10/13 00:52:22;;;;;;;9.75;4.13;;;18.30;87.20;;;;;;5006014;28;20459;-74
2023/10/13 00:54:51;;;;;;;16.33;5.15;;;18.20;87.20;;;;;;4999330;28;20101;-75
2023/10/13 01:00:12;;;;;;;7.68;4.28;;;18.10;87.70;;;;;;5005037;28;20049;-76
2023/10/13 01:02:41;;;;;;;10.38;4.10;;;18.10;88.20;;;;;;5005970;28;20091;-75
2023/10/13 01:05:11;;;;;;;14.60;4.43;;;18.10;88.00;;;;;;5006662;28;20022;-75
2023/10/13 01:07:37;;;;;;;11.27;5.07;;;18.10;88.30;;;;;;5001584;28;20112;-75
2023/10/13 01:10:19;;;;;;;9.43;3.72;;;18.00;88.60;;;;;;5005605;28;20088;-76
2023/10/13 01:12:52;;;;;;;14.30;4.07;;;18.00;88.80;;;;;;5002578;28;20061;-74
2023/10/13 01:15:21;;;;;;;10.73;4.15;;;18.00;88.70;;;;;;5001480;28;20088;-74
2023/10/13 01:17:47;;;;;;;10.48;3.95;;;17.90;88.80;;;;;;5002569;28;20021;-75
2023/10/13 01:20:42;;;;;;;10.40;3.67;;;18.00;88.60;;;;;;5004723;28;20448;-74
2023/10/13 01:23:24;;;;;;;6.78;3.90;;;17.90;88.60;;;;;;5007702;28;20031;-74
2023/10/13 01:25:50;;;;;;;7.80;4.00;;;17.90;88.90;;;;;;5007078;28;20420;-74
2023/10/13 01:28:16;;;;;;;6.85;3.72;;;17.90;88.90;;;;;;5000122;28;20025;-75
2023/10/13 01:30:49;;;;;;;8.77;3.75;;;17.80;89.30;;;;;;5006064;28;20033;-74
2023/10/13 01:33:32;;;;;;;9.27;3.90;;;17.80;89.90;;;;;;5007704;28;20132;-73
2023/10/13 01:36:06;;;;;;;8.13;3.88;;;17.70;89.80;;;;;;5005549;28;20081;-74
2023/10/13 01:38:37;;;;;;;23.75;4.53;;;17.70;90.10;;;;;;5006998;28;20409;-73
2023/10/13 01:41:05;;;;;;;10.40;4.57;;;17.60;90.30;;;;;;5006874;28;20096;-74
2023/10/13 01:43:31;;;;;;;6.47;4.18;;;17.50;90.30;;;;;;5003872;28;20034;-74
2023/10/13 01:45:56;;;;;;;13.95;4.03;;;17.50;90.30;;;;;;5007601;28;20550;-75
2023/10/13 01:48:22;;;;;;;7.25;3.60;;;17.50;90.60;;;;;;5004711;28;20066;-76
2023/10/13 01:50:52;;;;;;;10.15;4.35;;;17.40;90.60;;;;;;5009609;28;20034;-73
2023/10/13 01:53:22;;;;;;;8.90;4.35;;;17.40;90.60;;;;;;5005242;28;20080;-74
2023/10/13 01:55:57;;;;;;;7.70;4.00;;;17.40;90.70;;;;;;5001876;28;20054;-73
2023/10/13 01:58:23;;;;;;;8.57;4.18;;;17.30;90.80;;;;;;4997881;28;21049;-72
2023/10/13 02:00:49;;;;;;;9.57;4.32;;;17.30;90.70;;;;;;5006834;28;20046;-72
2023/10/13 02:03:16;;;;;;;7.35;4.43;;;17.30;90.70;;;;;;5006992;28;20073;-72
2023/10/13 02:05:52;;;;;;;12.48;4.65;;;17.20;90.80;;;;;;5009167;28;20034;-73
2023/10/13 02:08:23;;;;;;;12.25;4.90;;;17.20;90.90;;;;;;5008573;28;20057;-73
2023/10/13 02:10:55;;;;;;;7.97;3.85;;;17.20;91.00;;;;;;5007456;28;20021;-72
2023/10/13 02:13:22;;;;;;;11.35;5.18;;;17.20;91.00;;;;;;5006336;28;20037;-72
2023/10/13 02:15:51;;;;;;;9.10;4.53;;;17.20;91.00;;;;;;5004940;28;20480;-72
2023/10/13 02:18:33;;;;;;;11.80;5.00;;;17.10;90.90;;;;;;5004899;28;20048;-73
2023/10/13 02:21:04;;;;;;;12.27;4.32;;;17.00;90.80;;;;;;5010233;28;20411;-72
2023/10/13 02:23:30;;;;;;;10.18;4.78;;;17.10;90.90;;;;;;5001391;28;20029;-72
2023/10/13 02:26:10;;;;;;;9.82;3.90;;;17.00;91.00;;;;;;5007641;28;20070;-73
2023/10/13 02:28:36;;;;;;;8.38;4.40;;;17.00;91.20;;;;;;5005218;28;20401;-72
2023/10/13 02:31:06;;;;;;;11.13;4.20;;;17.00;91.10;;;;;;5005093;28;21181;-73
2023/10/13 02:33:44;;;;;;;7.20;3.63;;;16.90;91.10;;;;;;5006048;28;20018;-73
2023/10/13 02:36:12;;;;;;;6.97;3.40;;;16.90;91.00;;;;;;5008483;28;20041;-73
2023/10/13 02:41:25;;;;;;;7.38;3.92;;;16.90;90.90;;;;;;5008888;28;20025;-73
2023/10/13 02:43:55;;;;;;;7.93;3.30;;;16.90;90.70;;;;;;5004764;28;20017;-73
2023/10/13 02:46:39;;;;;;;11.43;3.47;;;16.90;90.50;;;;;;5006773;28;20034;-73
2023/10/13 02:49:10;;;;;;;6.70;3.05;;;16.90;90.40;;;;;;5005389;28;20022;-73
2023/10/13 02:51:37;;;;;;;12.07;3.90;;;16.90;90.20;;;;;;5005403;28;20042;-73
2023/10/13 02:54:10;;;;;;;11.90;3.30;;;17.00;90.40;;;;;;5004634;28;20046;-73
2023/10/13 02:57:09;;;;;;;9.40;4.30;;;17.00;90.10;;;;;;5008417;28;20466;-73
2023/10/13 02:59:56;;;;;;;8.77;3.20;;;17.00;90.00;;;;;;5003371;28;20050;-75
2023/10/13 03:02:25;;;;;;;6.47;3.58;;;17.00;89.60;;;;;;5006146;28;20793;-75
2023/10/13 03:05:08;;;;;;;8.98;3.67;;;17.00;89.40;;;;;;5005581;28;20022;-75
2023/10/13 03:07:37;;;;;;;7.83;3.40;;;17.00;89.30;;;;;;5005242;28;20022;-76
2023/10/13 03:10:20;;;;;;;7.60;3.65;;;17.00;89.20;;;;;;5021031;28;20325;-76
2023/10/13 03:12:49;;;;;;;7.15;3.85;;;17.00;89.00;;;;;;5006299;28;20038;-76
2023/10/13 03:15:19;;;;;;;11.93;3.55;;;17.00;88.80;;;;;;5007750;28;20029;-75
2023/10/13 03:17:47;;;;;;;9.27;3.30;;;17.10;88.90;;;;;;5005308;28;20543;-75
2023/10/13 03:20:22;;;;;;;9.90;3.03;;;17.00;88.70;;;;;;4998937;28;20033;-75
2023/10/13 03:22:52;;;;;;;11.70;3.10;;;17.10;88.70;;;;;;5006475;28;20038;-76
2023/10/13 03:25:29;;;;;;;7.40;3.50;;;17.10;88.60;;;;;;5006231;28;20546;-75
2023/10/13 03:28:05;;;;;;;9.85;3.15;;;17.10;88.60;;;;;;5005105;28;20500;-76
2023/10/13 03:30:42;;;;;;;6.53;3.60;;;17.10;88.30;;;;;;5003961;28;20045;-76
2023/10/13 03:33:11;;;;;;;8.15;3.20;;;17.10;88.10;;;;;;5000574;28;20056;-76
2023/10/13 03:35:43;;;;;;;7.25;3.20;;;17.10;87.80;;;;;;4999800;28;20084;-75
2023/10/13 03:38:17;;;;;;;7.78;3.25;;;17.10;87.60;;;;;;5006146;28;20054;-75
2023/10/13 03:44:07;;;;;;;9.45;2.92;;;17.10;87.40;;;;;;5005921;28;20530;-75
2023/10/13 03:46:40;;;;;;;6.25;2.92;;;17.20;87.30;;;;;;5002851;28;20578;-75
2023/10/13 03:49:12;;;;;;;8.07;3.33;;;17.10;87.10;;;;;;5003740;28;20050;-75
2023/10/13 03:51:43;;;;;;;7.15;2.72;;;17.20;87.40;;;;;;5007053;28;20030;-75
2023/10/13 03:54:09;;;;;;;9.63;3.55;;;17.20;87.20;;;;;;5004819;28;20473;-76
2023/10/13 03:56:41;;;;;;;8.75;3.25;;;17.20;87.30;;;;;;5005824;28;20167;-76
2023/10/13 03:59:18;;;;;;;7.72;3.67;;;17.20;87.00;;;;;;5006486;28;20141;-75
2023/10/13 04:01:58;;;;;;;13.27;3.80;;;17.20;86.90;;;;;;5005807;28;20389;-75
2023/10/13 04:17:40;;;;;;;7.95;3.35;;;17.30;86.20;;;;;;5000197;28;20056;-75
2023/10/13 04:26:05;;;;;;;8.63;3.60;;;17.30;86.00;;;;;;5007669;28;20496;-74
2023/10/13 04:28:34;;;;;;;4.45;2.88;;;17.30;85.90;;;;;;5002947;28;20042;-76
2023/10/13 04:31:11;;;;;;;7.13;3.22;;;17.30;85.80;;;;;;5000945;28;20017;-74
2023/10/13 04:33:56;;;;;;;11.90;3.63;;;17.30;86.00;;;;;;5003104;28;20508;-74
2023/10/13 04:38:56;;;;;;;8.90;3.75;;;17.40;86.00;;;;;;4998569;28;20049;-74
2023/10/13 04:41:41;;;;;;;11.38;3.55;;;17.40;86.00;;;;;;4996963;28;20425;-74
2023/10/13 04:49:28;;;;;;;;;;;;;;;;;;;;;
2023/10/13 04:52:50;;;;;;;9.05;3.83;;;17.30;86.10;;;;;;4999271;28;20401;-71
2023/10/13 04:55:09;;;;;;;7.53;3.10;;;17.30;86.40;;;;;;4994488;28;20148;-71
2023/10/13 04:57:47;;;;;;;7.90;3.40;;;17.30;87.30;;;;;;5007724;28;20105;-70
2023/10/13 05:44:55;;;;;;;10.50;4.68;;;16.20;92.10;;;;;;5002887;28;20024;-75
2023/10/13 05:47:46;;;;;;;9.57;5.05;;;16.10;92.00;;;;;;5004436;28;20308;-75
2023/10/13 05:50:29;;;;;;;10.70;4.57;;;16.10;92.30;;;;;;4997151;28;20029;-76
2023/10/13 06:29:07;;;;;;;16.13;4.93;;;15.70;92.90;;;;;;5005691;28;20037;-75
2023/10/13 06:31:35;;;;;;;10.27;4.55;;;15.70;92.90;;;;;;5000972;28;20397;-74
2023/10/13 06:34:06;;;;;;;18.42;5.13;;;15.70;93.00;;;;;;5008557;28;20046;-74
2023/10/13 06:36:33;;;;;;;9.88;4.57;;;15.70;93.10;;;;;;5001574;28;20144;-74
2023/10/13 06:41:49;;;;;;;10.30;4.65;;;15.80;93.30;;;;;;5006291;28;20036;-75
2023/10/13 06:44:17;;;;;;;13.65;4.18;;;15.80;93.10;;;;;;5005381;28;20492;-75
2023/10/13 06:46:43;;;;;;;12.25;5.10;;;15.80;93.10;;;;;;5024158;28;20021;-74
2023/10/13 06:49:10;;;;;;;11.38;5.03;;;15.90;92.90;;;;;;5007637;28;20027;-75
2023/10/13 06:51:38;;;;;;;15.38;5.55;;;15.90;92.80;;;;;;5004372;28;20080;-75
2023/10/13 06:54:20;;;;;;;10.88;4.65;;;15.90;92.70;;;;;;5008739;28;20392;-75
2023/10/13 06:56:46;;;;;;;13.15;5.78;;;16.00;92.60;;;;;;5006119;28;20083;-75
2023/10/13 06:59:26;;;;;;;8.60;4.88;;;16.00;92.40;;;;;;5005172;28;20057;-75
2023/10/13 07:01:52;;;;;;;11.48;5.53;;;16.10;92.40;;;;;;5005299;28;20026;-74
2023/10/13 07:04:39;;;;;;;14.80;5.72;;;16.10;92.40;;;;;;5004436;28;20041;-74
2023/10/13 07:07:15;;;;;;;12.63;4.70;;;16.10;92.40;;;;;;5008034;28;20117;-74
2023/10/13 07:09:55;;;;;;;20.45;5.70;;;16.10;92.30;;;;;;5006053;28;20065;-74
2023/10/13 07:12:26;;;;;;;16.50;5.15;;;16.10;92.30;;;;;;5007528;28;20057;-74
2023/10/13 07:17:44;;;;;;;17.85;5.97;;;16.10;92.20;;;;;;5006093;28;20037;-76
2023/10/13 07:23:03;;;;;;;13.68;5.70;;;16.10;92.30;;;;;;5007297;28;20524;-75
2023/10/13 07:25:38;;;;;;;12.95;5.18;;;16.10;92.40;;;;;;5006884;28;20568;-75
2023/10/13 07:28:06;;;;;;;13.20;5.88;;;16.10;92.50;;;;;;5005216;28;20120;-75
2023/10/13 07:30:49;;;;;;;12.10;5.45;;;16.20;92.60;;;;;;5002895;28;20037;-74
2023/10/13 07:33:19;;;;;;;18.67;6.20;;;16.20;92.70;;;;;;5009660;28;20113;-74
2023/10/13 07:35:51;;;;;;;12.63;5.40;;;16.30;92.70;;;;;;5003844;28;20072;-75
2023/10/13 07:38:21;;;;;;;14.38;5.40;;;16.30;92.60;;;;;;5006157;28;20047;-75
2023/10/13 07:40:52;;;;;;;13.07;5.78;;;16.40;92.40;;;;;;4997072;28;20042;-74
2023/10/13 07:43:21;;;;;;;10.35;4.72;;;16.40;92.10;;;;;;5005266;28;20026;-75
2023/10/13 07:45:51;;;;;;;11.20;5.30;;;16.50;92.10;;;;;;5004794;28;20104;-75
2023/10/13 07:48:21;;;;;;;10.27;4.72;;;16.50;91.70;;;;;;5004043;28;20148;-75
2023/10/13 07:51:03;;;;;;;11.88;4.80;;;16.60;91.40;;;;;;5007344;28;20030;-74
2023/10/13 07:53:39;;;;;;;13.48;5.10;;;16.60;91.20;;;;;;5003510;28;20175;-74
2023/10/13 07:56:18;;;;;;;13.82;4.15;;;16.70;91.20;;;;;;5002938;28;20492;-74
2023/10/13 07:59:00;;;;;;;10.65;4.97;;;16.70;91.10;;;;;;5009306;28;20033;-74
2023/10/13 08:01:46;;;;;;;13.85;4.88;;;16.70;91.10;;;;;;5008396;28;20077;-73
2023/10/13 08:04:28;;;;;;;11.27;4.93;;;16.90;91.00;;;;;;5003076;28;20053;-75
2023/10/13 08:07:02;;;;;;;10.27;4.45;;;16.90;90.80;;;;;;5001228;28;20034;-75
2023/10/13 08:09:40;;;;;;;12.32;4.53;;;17.00;90.60;;;;;;5002314;28;20113;-74
2023/10/13 08:12:07;;;;;;;8.98;4.50;;;17.00;90.70;;;;;;5003075;28;20705;-74
2023/10/13 08:15:09;;;;;;;13.40;5.10;;;17.10;90.90;;;;;;5002939;28;20022;-75
2023/10/13 08:17:37;;;;;;;11.75;5.32;;;17.20;90.70;;;;;;5001005;28;20021;-74
2023/10/13 08:20:17;;;;;;;16.00;5.35;;;17.20;90.50;;;;;;5005948;28;20033;-74
2023/10/13 08:22:47;;;;;;;19.92;5.20;;;17.30;90.30;;;;;;5001896;28;20656;-75
2023/10/13 08:25:20;;;;;;;14.60;5.53;;;17.50;90.30;;;;;;5003857;28;20044;-75
2023/10/13 08:30:52;;;;;;;13.18;5.20;;;17.60;90.00;;;;;;5003481;28;20057;-75
2023/10/13 08:33:18;;;;;;;9.55;4.80;;;17.70;89.50;;;;;;5002888;28;20076;-74
2023/10/13 08:38:50;;;;;;;10.80;4.10;;;17.80;88.90;;;;;;5003648;28;20049;-75
2023/10/13 08:41:58;;;;;;;9.40;4.57;;;17.90;88.80;;;;;;5004607;28;20053;-75
2023/10/13 08:44:43;;;;;;;16.80;4.50;;;18.00;88.60;;;;;;5005363;28;20527;-75
2023/10/13 08:47:16;;;;;;;15.95;4.22;;;18.10;88.40;;;;;;5005091;28;20460;-75
2023/10/13 08:49:46;;;;;;;;;;;18.20;88.20;;;;;;5003705;28;20049;-75
2023/10/13 08:55:35;;;;;;;10.10;4.63;;;18.30;87.40;;;;;;5005045;28;20115;-75
2023/10/13 08:58:12;;;;;;;9.15;4.07;;;18.40;87.20;;;;;;5007736;23;20451;-73
2023/10/13 09:03:53;;;;;;;16.73;4.85;;;18.50;87.40;;;;;;4944447;29;20497;-74
2023/10/13 09:06:19;;;;;;;11.95;4.07;;;18.60;86.80;;;;;;4933517;29;20123;-73
2023/10/13 09:09:05;;;;;;;11.27;4.60;;;18.80;86.30;;;;;;4955784;28;20409;-73
2023/10/13 09:11:48;;;;;;;9.90;4.18;;;18.80;86.00;;;;;;4968569;28;20050;-75
2023/10/13 09:14:33;;;;;;;15.23;4.95;;;19.00;86.40;;;;;;4968992;28;20327;-75
2023/10/13 09:19:59;;;;;;;12.40;4.47;;;19.20;84.80;;;;;;4964148;28;20446;-75
2023/10/13 09:22:27;;;;;;;10.10;4.28;;;19.30;85.20;;;;;;4969960;28;20031;-76
2023/10/13 09:24:59;;;;;;;9.82;4.85;;;19.40;85.70;;;;;;4962930;28;20034;-75
2023/10/13 09:27:32;;;;;;;17.92;5.28;;;19.40;84.20;;;;;;4966359;28;20452;-75
2023/10/13 09:30:18;;;;;;;14.07;4.55;;;19.60;84.00;;;;;;4968953;28;20031;-75
2023/10/13 09:32:48;;;;;;;21.92;5.50;;;19.60;83.50;;;;;;4979905;28;20433;-75
2023/10/13 09:35:19;;;;;;;13.90;5.43;;;19.70;83.10;;;;;;4966381;28;20598;-75
2023/10/13 09:37:48;;;;;;;17.55;4.28;;;19.80;82.80;;;;;;4967424;28;20030;-75
2023/10/13 09:43:16;;;;;;;11.20;4.28;;;20.10;82.40;;;;;;4962993;28;20421;-75
2023/10/13 09:49:04;;;;;;;11.10;4.28;;;20.30;82.10;;;;;;4974373;28;20034;-75
2023/10/13 09:51:31;;;;;;;9.55;3.83;;;20.40;82.00;;;;;;4970712;28;20039;-75
2023/10/13 09:54:01;;;;;;;10.93;5.22;;;20.60;81.20;;;;;;4970416;28;20039;-75
2023/10/13 09:56:51;;;;;;;12.50;4.63;;;20.60;81.30;;;;;;4974470;28;20389;-75
2023/10/13 09:59:19;;;;;;;9.55;3.75;;;20.80;80.40;;;;;;4975446;28;20058;-75
2023/10/13 10:01:52;;;;;;;11.15;3.60;;;20.90;80.40;;;;;;4980579;28;20421;-75
2023/10/13 10:04:19;;;;;;;9.60;3.42;;;21.10;79.80;;;;;;4976792;28;20031;-74
2023/10/13 10:06:56;;;;;;;10.85;3.38;;;21.20;79.40;;;;;;4974614;28;20074;-74
2023/10/13 10:09:36;;;;;;;11.43;3.97;;;21.30;79.00;;;;;;4983747;28;20065;-75
2023/10/13 10:12:39;;;;;;;11.50;3.95;;;21.40;78.60;;;;;;4974267;28;20028;-76
2023/10/13 10:15:20;;;;;;;11.40;3.55;;;21.50;78.60;;;;;;4975109;28;20023;-74
2023/10/13 10:17:46;;;;;;;6.72;3.03;;;21.60;78.10;;;;;;4973454;28;20018;-74
2023/10/13 10:20:19;;;;;;;7.32;2.90;;;21.80;75.00;;;;;;4987902;28;20058;-74
2023/10/13 10:22:58;;;;;;;12.33;3.37;;;22.10;73.50;;;;;;4968797;28;20114;-74
2023/10/13 10:25:34;;;;;;;9.13;2.70;;;22.30;70.80;;;;;;4974527;28;20073;-74
2023/10/13 10:28:04;;;;;;;5.13;2.28;;;22.70;69.10;;;;;;4968748;28;20026;-75
2023/10/13 10:30:33;;;;;;;11.25;2.88;;;23.00;66.70;;;;;;4974847;28;20027;-75
2023/10/13 10:33:01;;;;;;;5.95;2.58;;;23.10;66.60;;;;;;4972507;28;20061;-74
2023/10/13 10:35:32;;;;;;;4.95;2.08;;;23.30;64.20;;;;;;4973612;28;20077;-75
2023/10/13 10:38:11;;;;;;;9.65;2.40;;;23.50;64.00;;;;;;4976245;28;20026;-74
2023/10/13 10:41:03;;;;;;;11.73;2.95;;;23.60;64.40;;;;;;4975027;28;20054;-74
2023/10/13 10:43:42;;;;;;;11.80;3.08;;;23.60;64.30;;;;;;4968370;28;20570;-74
2023/10/13 10:46:28;;;;;;;8.20;3.28;;;23.80;64.10;;;;;;4985698;28;20042;-75
2023/10/13 10:49:00;;;;;;;5.35;2.33;;;23.80;63.60;;;;;;4972313;28;20472;-75
2023/10/13 10:51:31;;;;;;;7.13;2.50;;;23.90;63.50;;;;;;4969953;28;20041;-73
2023/10/13 10:53:58;;;;;;;6.88;2.60;;;23.90;63.30;;;;;;4974069;28;20676;-75
2023/10/13 10:58:55;;;;;;;10.00;3.75;;;24.10;62.70;;;;;;4974538;28;20035;-74
2023/10/13 11:01:33;;;;;;;7.97;2.80;;;24.00;63.20;;;;;;4972369;28;20073;-74
2023/10/13 11:03:59;;;;;;;8.10;3.35;;;24.10;64.30;;;;;;4972177;28;20038;-73
2023/10/13 11:06:26;;;;;;;10.35;3.00;;;24.20;63.20;;;;;;4987704;28;20122;-73
2023/10/13 11:11:52;;;;;;;6.78;2.72;;;24.30;62.90;;;;;;4970911;28;20089;-75
2023/10/13 11:14:22;;;;;;;8.45;2.55;;;24.30;63.00;;;;;;4990147;28;20441;-74
2023/10/13 11:17:00;;;;;;;8.98;2.78;;;24.40;63.10;;;;;;4973415;28;20118;-74
2023/10/13 11:19:42;;;;;;;7.30;2.72;;;24.40;63.20;;;;;;4985209;28;20031;-74
2023/10/13 11:22:42;;;;;;;12.45;3.10;;;24.60;62.20;;;;;;4971409;28;20058;-75
2023/10/13 11:25:11;;;;;;;5.13;2.42;;;24.70;61.60;;;;;;4973098;28;20031;-74
2023/10/13 11:27:55;;;;;;;4.20;2.17;;;24.80;60.90;;;;;;4972321;28;20034;-75
2023/10/13 11:30:25;;;;;;;6.72;2.20;;;24.90;60.30;;;;;;4968104;28;20057;-75
2023/10/13 11:33:00;;;;;;;6.40;2.75;;;25.00;59.60;;;;;;4973601;28;20038;-74
2023/10/13 11:35:48;;;;;;;7.03;3.17;;;25.00;59.90;;;;;;4973630;28;20047;-73
2023/10/13 11:38:15;;;;;;;5.25;2.45;;;25.00;59.80;;;;;;4971665;28;20034;-74
2023/10/13 11:40:59;;;;;;;5.47;2.97;;;25.00;60.20;;;;;;4970631;28;20026;-74
2023/10/13 11:43:26;;;;;;;4.97;2.58;;;25.10;60.00;;;;;;4974008;28;20031;-74
2023/10/13 11:46:12;;;;;;;8.77;2.95;;;25.10;60.00;;;;;;4973042;28;20061;-75
2023/10/13 11:48:43;;;;;;;6.05;2.15;;;25.20;60.00;;;;;;4968605;28;20464;-75
2023/10/13 11:51:17;;;;;;;9.05;4.03;;;25.20;59.80;;;;;;4970428;28;20027;-74
2023/10/13 11:53:44;;;;;;;9.88;4.38;;;25.30;59.60;;;;;;4971822;28;20019;-74
2023/10/13 11:56:11;;;;;;;4.68;3.17;;;25.40;59.20;;;;;;4970201;28;20027;-76
2023/10/13 11:58:37;;;;;;;7.80;2.90;;;25.40;59.30;;;;;;4972899;28;20042;-76
2023/10/13 12:11:50;;;;;;;9.23;2.90;;;25.60;59.20;;;;;;4969002;28;20730;-76
2023/10/13 12:14:36;;;;;;;7.20;2.80;;;25.60;59.30;;;;;;4970742;28;20030;-75
2023/10/13 12:17:10;;;;;;;7.05;3.25;;;25.50;59.50;;;;;;4966424;28;20034;-74
2023/10/13 12:19:38;;;;;;;6.38;2.97;;;25.60;59.30;;;;;;4968012;28;20038;-75
2023/10/13 12:22:07;;;;;;;4.72;2.55;;;25.70;58.90;;;;;;4973093;28;20035;-76
2023/10/13 12:27:02;;;;;;;7.35;3.08;;;25.70;59.00;;;;;;4972007;28;20065;-75
2023/10/13 12:29:28;;;;;;;8.15;3.30;;;25.80;58.70;;;;;;4967508;28;20026;-76
2023/10/13 12:32:14;;;;;;;8.02;3.25;;;25.90;58.80;;;;;;4967516;28;20030;-75
2023/10/13 12:51:20;;;;;;;5.70;2.83;;;26.20;58.20;;;;;;4970284;28;20457;-75
2023/10/13 12:53:50;;;;;;;5.80;2.50;;;26.20;58.50;;;;;;4971309;28;20119;-75
2023/10/13 12:56:17;;;;;;;9.38;2.92;;;26.20;58.70;;;;;;4970431;28;20106;-75
2023/10/13 12:58:52;;;;;;;12.45;3.67;;;26.20;58.30;;;;;;4971194;28;20019;-74
2023/10/13 13:01:22;;;;;;;10.10;3.00;;;26.20;58.60;;;;;;4971610;28;20026;-75
2023/10/13 13:03:49;;;;;;;5.78;2.40;;;26.20;58.60;;;;;;4971689;28;20413;-75
2023/10/13 13:06:29;;;;;;;4.32;2.58;;;26.30;58.60;;;;;;4969397;28;20074;-75
2023/10/13 13:08:56;;;;;;;5.10;2.28;;;26.20;58.60;;;;;;4971167;28;20027;-75
2023/10/13 13:11:21;;;;;;;7.10;3.58;;;26.30;58.50;;;;;;4969880;28;20023;-75
2023/10/13 13:13:47;;;;;;;10.07;2.92;;;26.40;58.50;;;;;;4967156;28;20061;-76
2023/10/13 13:16:23;;;;;;;7.85;3.42;;;26.40;58.60;;;;;;4972846;28;20019;-75
2023/10/13 13:18:49;;;;;;;7.85;2.85;;;26.40;58.60;;;;;;4974940;28;20115;-73
2023/10/13 13:21:21;;;;;;;8.05;3.22;;;26.40;61.30;;;;;;4977737;28;20106;-73
2023/10/13 13:23:47;;;;;;;6.38;3.05;;;26.30;62.90;;;;;;4977310;28;20019;-73
2023/10/13 13:26:15;;;;;;;5.28;3.20;;;26.30;59.10;;;;;;4977191;28;20102;-73
2023/10/13 13:28:42;;;;;;;3.92;2.42;;;26.20;60.60;;;;;;4976962;28;20082;-73
2023/10/13 13:31:08;;;;;;;7.85;3.08;;;26.10;65.10;;;;;;4975894;28;20030;-70
2023/10/13 13:33:38;;;;;;;7.32;3.33;;;26.10;61.40;;;;;;4975466;28;20027;-71
2023/10/13 13:36:07;;;;;;;8.18;3.38;;;26.10;60.70;;;;;;4976642;28;20049;-70
2023/10/13 13:38:33;;;;;;;8.68;3.13;;;26.10;61.00;;;;;;4976837;28;20054;-73
2023/10/13 13:41:02;;;;;;;8.05;2.83;;;26.10;60.60;;;;;;4975482;28;20051;-73
2023/10/13 13:43:31;;;;;;;9.50;2.95;;;26.10;60.10;;;;;;4976967;28;20097;-71
2023/10/13 13:46:03;;;;;;;9.00;2.78;;;26.10;59.70;;;;;;4976266;28;20039;-72
2023/10/13 13:48:30;;;;;;;7.88;3.63;;;26.10;60.20;;;;;;4976386;28;20034;-73
2023/10/13 13:51:04;;;;;;;6.22;2.65;;;26.00;62.30;;;;;;4975256;28;20541;-72
2023/10/13 13:53:32;;;;;;;6.07;2.60;;;26.00;61.20;;;;;;4976396;28;20026;-72
2023/10/13 13:56:06;;;;;;;5.38;2.75;;;26.00;60.20;;;;;;4976343;28;20023;-72
2023/10/13 13:58:38;;;;;;;6.72;2.92;;;25.90;61.90;;;;;;4975469;28;20034;-73
2023/10/13 14:01:14;;;;;;;5.63;3.28;;;25.90;62.00;;;;;;4976217;28;20027;-73
2023/10/13 14:03:46;;;;;;;9.27;3.17;;;25.90;60.10;;;;;;4976255;28;20026;-73
2023/10/13 14:06:28;;;;;;;6.82;3.05;;;26.00;61.00;;;;;;4975183;28;20035;-73
2023/10/13 14:09:03;;;;;;;6.85;2.67;;;26.00;60.10;;;;;;4955490;28;20035;-72
2023/10/13 14:14:13;;;;;;;4.38;2.47;;;26.00;59.50;;;;;;4970348;28;20078;-73
2023/10/13 14:17:02;;;;;;;7.60;3.25;;;26.00;61.30;;;;;;4975899;28;20477;-73
2023/10/13 14:19:28;;;;;;;5.53;3.35;;;26.10;60.30;;;;;;4974572;28;20039;-72
2023/10/13 14:22:06;;;;;;;7.22;3.65;;;26.00;60.20;;;;;;4976132;28;20034;-72
2023/10/13 14:24:54;;;;;;;10.20;2.85;;;25.90;62.00;;;;;;4976664;28;20542;-73
2023/10/13 14:27:26;;;;;;;8.60;3.00;;;25.80;59.50;;;;;;4975148;28;20481;-73
2023/10/13 14:29:56;;;;;;;10.52;2.75;;;25.80;58.50;;;;;;4976583;28;20026;-73
2023/10/13 14:32:24;;;;;;;11.48;3.10;;;25.80;58.20;;;;;;4991362;28;20031;-73
2023/10/13 14:34:54;;;;;;;5.72;2.65;;;25.80;57.50;;;;;;4976137;28;20023;-73
2023/10/13 14:37:26;;;;;;;7.47;3.03;;;25.70;60.90;;;;;;4976443;28;20122;-72
2023/10/13 14:39:58;;;;;;;4.15;2.75;;;25.70;58.70;;;;;;4976993;28;20037;-73
2023/10/13 14:42:28;;;;;;;7.15;2.80;;;25.70;61.20;;;;;;4976088;28;20085;-72
2023/10/13 14:45:12;;;;;;;13.65;3.22;;;25.70;60.10;;;;;;4974612;28;20041;-71
2023/10/13 14:47:41;;;;;;;6.72;2.60;;;25.70;60.30;;;;;;4974084;28;20086;-71
2023/10/13 14:50:24;;;;;;;7.38;3.15;;;25.60;61.20;;;;;;4975755;28;20077;-71
2023/10/13 14:52:53;;;;;;;8.57;3.38;;;25.50;61.20;;;;;;4975373;28;20093;-72
2023/10/13 14:55:33;;;;;;;5.72;2.53;;;25.40;62.60;;;;;;4975149;28;20027;-71
2023/10/13 14:57:59;;;;;;;6.13;2.85;;;25.40;60.30;;;;;;4983369;23;20062;-73
2023/10/13 15:00:24;;;;;;;7.18;3.50;;;25.40;60.00;;;;;;4967049;28;20057;-74
2023/10/13 15:02:54;;;;;;;7.88;2.75;;;25.40;59.10;;;;;;4966559;28;20066;-74
2023/10/13 15:05:22;;;;;;;8.68;3.38;;;25.40;58.40;;;;;;4970023;28;20493;-74
2023/10/13 15:07:51;;;;;;;12.68;3.72;;;25.40;57.90;;;;;;4964507;28;20027;-74
2023/10/13 15:10:25;;;;;;;13.60;5.32;;;25.30;57.90;;;;;;4954751;28;20505;-75
2023/10/13 15:12:51;;;;;;;8.80;3.30;;;25.30;58.40;;;;;;4954887;28;20504;-75
2023/10/13 15:15:19;;;;;;;14.07;5.43;;;25.30;58.90;;;;;;4954016;28;20023;-74
2023/10/13 15:17:50;;;;;;;9.88;4.60;;;25.20;59.50;;;;;;4946111;28;20408;-74
2023/10/13 15:20:23;;;;;;;14.88;5.57;;;25.20;59.50;;;;;;4973577;28;20027;-75
2023/10/13 15:22:48;;;;;;;10.82;3.90;;;25.20;59.50;;;;;;4951666;28;20110;-75
2023/10/13 15:25:49;;;;;;;9.80;3.63;;;25.10;59.70;;;;;;4953949;28;20114;-75
2023/10/13 15:28:20;;;;;;;6.43;3.58;;;25.20;57.50;;;;;;4970181;28;20027;-74
2023/10/13 15:30:56;;;;;;;8.45;2.85;;;25.10;57.30;;;;;;4956933;28;20222;-75
2023/10/13 15:33:23;;;;;;;6.30;3.13;;;25.20;56.70;;;;;;4951610;28;20022;-75
2023/10/13 15:36:07;;;;;;;7.90;3.03;;;25.10;56.50;;;;;;4951305;28;20505;-76
2023/10/13 15:38:33;;;;;;;11.18;3.80;;;25.00;56.50;;;;;;4967559;28;20071;-74
2023/10/13 15:41:04;;;;;;;14.70;4.28;;;25.00;56.80;;;;;;4957102;28;20486;-74
2023/10/13 15:43:29;;;;;;;6.32;2.88;;;24.90;57.00;;;;;;4956219;28;20393;-75
2023/10/13 15:45:59;;;;;;;8.27;3.63;;;24.80;57.10;;;;;;4952688;28;20032;-75
2023/10/13 15:48:25;;;;;;;19.23;3.45;;;24.70;57.50;;;;;;4954210;28;20023;-75
2023/10/13 15:50:56;;;;;;;9.00;4.43;;;24.60;57.50;;;;;;4955841;28;20023;-75
2023/10/13 15:53:28;;;;;;;6.80;3.22;;;24.60;58.20;;;;;;4949146;28;20071;-75
2023/10/13 15:55:54;;;;;;;10.35;4.57;;;24.60;58.00;;;;;;4954586;28;20024;-75
2023/10/13 15:58:43;;;;;;;10.48;3.35;;;24.50;57.90;;;;;;4957235;28;20034;-75
2023/10/13 16:01:23;;;;;;;8.98;3.10;;;24.50;57.80;;;;;;4955802;28;20047;-75
2023/10/13 16:03:51;;;;;;;9.98;4.50;;;24.40;58.70;;;;;;4949434;28;20545;-75
2023/10/13 16:06:17;;;;;;;13.82;5.05;;;24.30;59.00;;;;;;4955062;28;20477;-74
2023/10/13 16:08:46;;;;;;;14.10;4.78;;;24.30;60.70;;;;;;4952742;28;20018;-76
2023/10/13 16:11:17;;;;;;;11.80;5.50;;;24.30;62.00;;;;;;4949707;28;20039;-75
2023/10/13 16:14:10;;;;;;;11.05;4.35;;;24.20;62.70;;;;;;4953740;28;20485;-75
2023/10/13 16:19:27;;;;;;;10.55;3.03;;;24.10;64.70;;;;;;4954237;28;20046;-76
2023/10/13 16:21:54;;;;;;;8.85;3.60;;;24.10;64.80;;;;;;4949620;28;20023;-76
2023/10/13 16:24:23;;;;;;;10.10;3.92;;;24.00;65.40;;;;;;4957821;28;20363;-75
2023/10/13 16:26:52;;;;;;;7.75;2.70;;;24.10;65.80;;;;;;4956461;28;20031;-75